createdAt,value
2023-02-14T00:02:46.131Z,22.77
2023-02-14T00:07:48.296Z,21.50
2023-02-14T00:12:50.390Z,21.95
2023-02-14T00:17:55.242Z,21.52
2023-02-14T00:22:57.286Z,22.60
2023-02-14T00:27:59.297Z,24.05
2023-02-14T00:33:01.354Z,22.75
2023-02-14T00:38:03.341Z,24.15
2023-02-14T00:43:05.539Z,24.00
2023-02-14T00:48:07.642Z,24.83
2023-02-14T00:53:09.716Z,24.60
2023-02-14T00:58:11.865Z,24.20
2023-02-14T01:03:14.342Z,23.35
2023-02-14T01:08:16.837Z,23.38
2023-02-14T01:13:19.796Z,23.00
2023-02-14T01:18:21.898Z,22.13
2023-02-14T01:23:24.141Z,22.45
2023-02-14T01:28:26.250Z,22.42
2023-02-14T01:33:28.289Z,21.42
2023-02-14T01:38:30.367Z,21.95
2023-02-14T01:43:32.398Z,22.50
2023-02-14T01:48:35.332Z,23.25
2023-02-14T01:53:37.425Z,23.08
2023-02-14T01:58:44.951Z,24.05
2023-02-14T02:03:54.682Z,23.17
2023-02-14T02:09:28.294Z,23.10
2023-02-14T02:14:31.068Z,23.40
2023-02-14T02:19:59.873Z,25.05
2023-02-14T02:25:20.935Z,23.13
2023-02-14T02:30:23.096Z,24.35
2023-02-14T02:35:40.661Z,23.98
2023-02-14T02:41:06.071Z,23.63
2023-02-14T02:46:49.800Z,24.38
2023-02-14T02:52:14.210Z,23.45
2023-02-14T02:57:23.636Z,23.00
2023-02-14T03:02:54.234Z,24.23
2023-02-14T03:07:57.080Z,24.00
2023-02-14T03:13:30.821Z,22.70
2023-02-14T03:18:47.977Z,22.52
2023-02-14T03:24:02.295Z,22.50
2023-02-14T03:29:31.458Z,21.70
2023-02-14T03:34:43.320Z,22.27
2023-02-14T03:39:58.049Z,22.10
2023-02-14T03:45:02.353Z,23.33
2023-02-14T03:50:10.932Z,22.65
2023-02-14T03:55:16.641Z,23.15
2023-02-14T04:00:19.397Z,23.13
2023-02-14T04:05:27.173Z,24.13
2023-02-14T04:10:29.368Z,24.92
2023-02-14T04:15:31.390Z,25.98
2023-02-14T04:20:34.125Z,26.20
2023-02-14T04:25:36.320Z,27.00
2023-02-14T04:30:38.429Z,24.98
2023-02-14T04:35:40.448Z,26.02
2023-02-14T04:40:42.509Z,24.55
2023-02-14T04:45:44.564Z,23.65
2023-02-14T04:50:52.528Z,25.30
2023-02-14T04:55:54.634Z,25.88
2023-02-14T05:00:56.715Z,26.10
2023-02-14T05:05:58.805Z,24.95
2023-02-14T05:11:01.185Z,26.27
2023-02-14T05:16:03.539Z,25.77
2023-02-14T05:21:05.814Z,25.38
2023-02-14T05:26:08.074Z,25.80
2023-02-14T05:31:10.381Z,26.58
2023-02-14T05:36:12.538Z,27.63
2023-02-14T05:41:14.600Z,25.73
2023-02-14T05:46:17.067Z,25.50
2023-02-14T05:51:19.212Z,26.42
2023-02-14T05:56:21.288Z,25.75
2023-02-14T06:01:23.431Z,26.95
2023-02-14T06:06:25.614Z,26.48
2023-02-14T06:11:27.670Z,27.08
2023-02-14T06:16:29.881Z,27.90
2023-02-14T06:21:32.221Z,27.85
2023-02-14T06:26:36.030Z,24.98
2023-02-14T06:31:38.280Z,25.83
2023-02-14T06:36:40.499Z,25.10
2023-02-14T06:41:42.537Z,25.77
2023-02-14T06:46:44.558Z,24.58
2023-02-14T06:51:46.610Z,25.23
2023-02-14T06:56:48.626Z,24.33
2023-02-14T07:01:51.028Z,26.35
2023-02-14T07:06:53.330Z,25.30
2023-02-14T07:11:55.571Z,25.27
2023-02-14T07:16:57.649Z,25.95
2023-02-14T07:21:59.831Z,24.58
2023-02-14T07:27:02.108Z,26.40
2023-02-14T07:32:04.749Z,27.67
2023-02-14T07:37:07.366Z,29.85
2023-02-14T07:42:10.595Z,31.60
2023-02-14T07:47:13.278Z,32.03
2023-02-14T07:52:15.334Z,36.03
2023-02-14T07:57:17.540Z,36.38
2023-02-14T08:02:20.943Z,35.38
2023-02-14T08:07:22.994Z,36.13
2023-02-14T08:12:43.291Z,35.63
2023-02-14T08:17:45.419Z,33.60
2023-02-14T08:22:47.484Z,33.47
2023-02-14T08:27:49.523Z,33.50
2023-02-14T08:32:51.589Z,35.90
2023-02-14T08:37:53.663Z,35.78
2023-02-14T08:42:55.834Z,34.25
2023-02-14T08:48:08.337Z,35.47
2023-02-14T08:53:11.918Z,34.28
2023-02-14T08:58:14.369Z,36.42
2023-02-14T09:03:16.443Z,35.47
2023-02-14T09:08:18.536Z,35.67
2023-02-14T09:13:20.522Z,33.67
2023-02-14T09:18:22.749Z,34.95
2023-02-14T09:23:24.802Z,33.78
2023-02-14T09:28:26.931Z,32.95
2023-02-14T09:33:29.198Z,35.45
2023-02-14T09:38:31.317Z,34.58
2023-02-14T09:43:51.120Z,32.38
2023-02-14T09:48:54.769Z,33.35
2023-02-14T09:54:09.289Z,32.38
2023-02-14T09:59:34.471Z,33.90
2023-02-14T10:04:57.330Z,33.17
2023-02-14T10:10:02.065Z,33.97
2023-02-14T10:15:20.613Z,31.65
2023-02-14T10:20:37.383Z,30.80
2023-02-14T10:26:01.225Z,28.02
2023-02-14T10:31:22.211Z,27.08
2023-02-14T10:36:55.405Z,26.08
2023-02-14T10:42:24.545Z,25.90
2023-02-14T10:47:41.683Z,27.20
2023-02-14T10:53:17.003Z,25.98
2023-02-14T10:58:22.127Z,26.23
2023-02-14T11:03:24.346Z,26.17
2023-02-14T11:08:33.588Z,26.55
2023-02-14T11:13:38.685Z,26.77
2023-02-14T11:18:41.382Z,27.92
2023-02-14T11:23:48.440Z,28.52
2023-02-14T11:28:55.733Z,26.77
2023-02-14T11:33:58.843Z,28.05
2023-02-14T11:39:03.637Z,27.15
2023-02-14T11:44:22.793Z,26.63
2023-02-14T11:49:31.981Z,26.50
2023-02-14T11:54:37.263Z,26.58
2023-02-14T11:59:48.493Z,25.30
2023-02-14T12:04:54.924Z,25.20
2023-02-14T12:10:08.259Z,24.17
2023-02-14T12:15:42.492Z,25.20
2023-02-14T12:20:53.832Z,21.45
2023-02-14T12:26:21.604Z,23.08
2023-02-14T12:31:23.819Z,23.40
2023-02-14T12:36:45.778Z,21.75
2023-02-14T12:42:10.027Z,23.13
2023-02-14T12:47:20.931Z,22.27
2023-02-14T12:52:37.216Z,22.95
2023-02-14T12:57:48.130Z,19.23
2023-02-14T13:03:22.151Z,20.00
2023-02-14T13:08:27.165Z,20.77
2023-02-14T13:14:04.390Z,20.67
2023-02-14T13:19:39.305Z,20.60
2023-02-14T13:24:43.574Z,20.45
2023-02-14T13:29:51.189Z,20.73
2023-02-14T13:34:53.858Z,20.42
2023-02-14T13:40:15.956Z,18.85
2023-02-14T13:45:37.590Z,19.45
2023-02-14T13:50:56.430Z,19.63
2023-02-14T13:55:59.103Z,18.67
2023-02-14T14:01:40.389Z,19.50
2023-02-14T14:07:00.886Z,18.93
2023-02-14T14:12:03.197Z,18.77
2023-02-14T14:17:20.530Z,19.00
2023-02-14T14:22:22.757Z,19.92
2023-02-14T14:27:33.380Z,19.33
2023-02-14T14:37:56.684Z,19.17
2023-02-14T14:43:22.976Z,19.97
2023-02-14T14:48:51.064Z,19.60
2023-02-14T14:54:06.504Z,20.77
2023-02-14T14:59:34.575Z,19.58
2023-02-14T15:04:36.747Z,19.02
2023-02-14T15:09:41.312Z,18.40
2023-02-14T15:14:50.417Z,19.65
2023-02-14T15:19:56.385Z,19.70
2023-02-14T15:24:58.584Z,20.45
2023-02-14T15:30:05.132Z,19.50
2023-02-14T15:35:07.766Z,19.77
2023-02-14T15:40:17.833Z,20.23
2023-02-14T15:45:26.439Z,21.30
2023-02-14T15:50:33.429Z,21.95
2023-02-14T15:55:36.096Z,21.50
2023-02-14T16:00:38.237Z,23.05
2023-02-14T16:05:46.945Z,21.85
2023-02-14T16:11:08.728Z,22.15
2023-02-14T16:16:12.926Z,24.27
2023-02-14T16:21:29.130Z,24.02
2023-02-14T16:26:32.099Z,24.98
2023-02-14T16:31:35.837Z,26.15
2023-02-14T16:36:38.026Z,25.08
2023-02-14T16:41:43.561Z,24.63
2023-02-14T16:46:46.496Z,24.63
2023-02-14T16:51:48.636Z,25.52
2023-02-14T16:56:54.661Z,25.55
2023-02-14T17:01:57.658Z,25.95
2023-02-14T17:07:05.669Z,29.52
2023-02-14T17:12:16.115Z,29.10
2023-02-14T17:17:18.453Z,28.50
2023-02-14T17:22:20.707Z,29.00
2023-02-14T17:27:22.736Z,25.40
2023-02-14T17:32:24.943Z,25.10
2023-02-14T17:37:26.956Z,25.30
2023-02-14T17:42:31.625Z,26.83
2023-02-14T17:47:34.175Z,27.05
2023-02-14T17:52:36.475Z,26.60
2023-02-14T17:57:40.837Z,29.67
2023-02-14T18:02:43.371Z,30.25
2023-02-14T18:07:45.466Z,33.67
2023-02-14T18:12:48.020Z,32.72
2023-02-14T18:17:50.738Z,30.48
2023-02-14T18:22:52.805Z,37.40
2023-02-14T18:27:54.838Z,39.15
2023-02-14T18:32:56.970Z,40.20
2023-02-14T18:37:59.060Z,38.17
2023-02-14T18:43:01.902Z,34.63
2023-02-14T18:48:04.961Z,32.42
2023-02-14T18:53:08.118Z,30.45
2023-02-14T18:58:10.392Z,32.85
2023-02-14T19:03:12.394Z,34.72
2023-02-14T19:08:14.574Z,39.58
2023-02-14T19:13:16.836Z,38.20
2023-02-14T19:18:19.018Z,38.25
2023-02-14T19:23:21.645Z,35.47
2023-02-14T19:28:24.016Z,30.60
2023-02-14T19:33:26.026Z,32.15
2023-02-14T19:38:28.452Z,35.72
2023-02-14T19:43:30.737Z,34.75
2023-02-14T19:48:32.721Z,35.78
2023-02-14T19:53:35.506Z,34.17
2023-02-14T19:58:37.757Z,36.28
2023-02-14T20:03:39.884Z,37.50
2023-02-14T20:08:42.078Z,35.15
2023-02-14T20:13:44.309Z,36.70
2023-02-14T20:18:46.762Z,37.70
2023-02-14T20:23:48.824Z,36.00
2023-02-14T20:28:50.859Z,35.33
2023-02-14T20:33:53.179Z,35.33
2023-02-14T20:39:00.805Z,35.50
2023-02-14T20:44:21.892Z,39.65
2023-02-14T20:49:26.037Z,41.97
2023-02-14T20:54:29.116Z,40.67
2023-02-14T20:59:31.146Z,38.25
2023-02-14T21:04:33.208Z,40.08
2023-02-14T21:09:35.198Z,39.15
2023-02-14T21:14:37.276Z,38.05
2023-02-14T21:19:39.341Z,37.45
2023-02-14T21:24:41.559Z,35.40
2023-02-14T21:29:43.628Z,37.85
2023-02-14T21:34:45.846Z,37.45
2023-02-14T21:39:48.443Z,35.80
2023-02-14T21:45:09.021Z,35.00
2023-02-14T21:50:29.871Z,36.60
2023-02-14T21:55:32.149Z,35.03
2023-02-14T22:00:34.429Z,34.53
2023-02-14T22:05:36.532Z,34.50
2023-02-14T22:10:40.217Z,32.95
2023-02-14T22:15:42.273Z,32.30
2023-02-14T22:20:44.445Z,33.60
2023-02-14T22:25:46.528Z,35.10
2023-02-14T22:30:48.532Z,35.58
2023-02-14T22:35:54.808Z,34.47
2023-02-14T22:40:57.142Z,31.38
2023-02-14T22:46:12.429Z,30.73
2023-02-14T22:51:32.536Z,29.33
2023-02-14T22:56:41.035Z,30.45
2023-02-14T23:01:43.936Z,31.10
2023-02-14T23:06:46.122Z,31.52
2023-02-14T23:11:49.152Z,30.38
2023-02-14T23:17:10.335Z,31.13
2023-02-14T23:22:15.506Z,30.25
2023-02-14T23:27:20.410Z,29.35
2023-02-14T23:32:22.591Z,30.30
2023-02-14T23:37:25.204Z,31.15
2023-02-14T23:42:28.182Z,30.25
2023-02-14T23:47:30.191Z,32.53
2023-02-14T23:52:32.266Z,36.72
2023-02-14T23:57:34.422Z,39.95
